createdAt,value
2019-01-06T00:02:57.421Z,78.86
2019-01-06T00:05:45.232Z,78.76
2019-01-06T00:08:33.049Z,78.83
2019-01-06T00:11:28.346Z,78.96
2019-01-06T00:14:17.921Z,78.88
2019-01-06T00:17:01.639Z,78.65
2019-01-06T00:19:56.734Z,78.78
2019-01-06T00:22:44.972Z,78.65
2019-01-06T00:25:40.359Z,78.68
2019-01-06T00:28:29.533Z,78.45
2019-01-06T00:31:25.290Z,78.17
2019-01-06T00:34:13.068Z,77.91
2019-01-06T00:37:12.966Z,77.83
2019-01-06T00:40:11.296Z,77.52
2019-01-06T00:43:00.383Z,77.47
2019-01-06T00:45:55.664Z,77.34
2019-01-06T00:48:56.638Z,77.24
2019-01-06T00:51:57.704Z,77.29
2019-01-06T00:54:40.907Z,77.25
2019-01-06T00:57:28.696Z,77.17
2019-01-06T01:00:16.837Z,77.15
2019-01-06T01:03:11.349Z,77.26
2019-01-06T01:05:59.850Z,77.36
2019-01-06T01:08:47.101Z,77.29
2019-01-06T01:11:34.496Z,77.43
2019-01-06T01:14:29.134Z,77.45
2019-01-06T01:17:21.425Z,77.52
2019-01-06T01:20:00.897Z,77.49
2019-01-06T01:22:49.388Z,77.47
2019-01-06T01:25:37.110Z,77.49
2019-01-06T01:28:39.356Z,77.46
2019-01-06T01:31:27.020Z,77.48
2019-01-06T01:34:28.214Z,77.45
2019-01-06T01:37:20.232Z,77.37
2019-01-06T01:40:12.633Z,77.30
2019-01-06T01:43:10.801Z,77.19
2019-01-06T01:45:58.903Z,77.21
2019-01-06T01:48:46.641Z,77.11
2019-01-06T01:51:33.196Z,77.19
2019-01-06T01:54:40.705Z,77.16
2019-01-06T01:57:32.584Z,76.98
2019-01-06T02:00:21.657Z,77.00
2019-01-06T02:03:11.085Z,76.81
2019-01-06T02:06:03.184Z,76.96
2019-01-06T02:09:05.713Z,76.85
2019-01-06T02:11:54.813Z,76.79
2019-01-06T02:14:46.777Z,76.67
2019-01-06T02:17:41.792Z,76.73
2019-01-06T02:20:32.374Z,76.80
2019-01-06T02:23:17.670Z,76.66
2019-01-06T02:26:00.176Z,76.64
2019-01-06T02:28:49.269Z,76.47
2019-01-06T02:31:37.475Z,76.37
2019-01-06T02:34:38.858Z,76.43
2019-01-06T02:37:40.509Z,76.53
2019-01-06T02:40:28.144Z,76.55
2019-01-06T02:43:20.509Z,76.78
2019-01-06T02:46:08.361Z,76.91
2019-01-06T02:48:56.542Z,76.89
2019-01-06T02:51:44.589Z,76.81
2019-01-06T02:54:36.820Z,76.83
2019-01-06T02:57:24.867Z,76.70
2019-01-06T03:00:14.232Z,76.84
2019-01-06T03:03:02.003Z,77.66
2019-01-06T03:06:06.490Z,77.72
2019-01-06T03:08:49.876Z,77.26
2019-01-06T03:11:54.101Z,76.95
2019-01-06T03:14:41.898Z,77.25
2019-01-06T03:17:36.953Z,77.19
2019-01-06T03:20:27.004Z,77.01
2019-01-06T03:23:07.809Z,76.79
2019-01-06T03:26:05.742Z,76.46
2019-01-06T03:28:54.088Z,76.56
2019-01-06T03:31:41.737Z,76.41
2019-01-06T03:34:33.273Z,76.43
2019-01-06T03:37:27.535Z,76.62
2019-01-06T03:40:21.981Z,76.73
2019-01-06T03:43:18.677Z,76.61
2019-01-06T03:46:11.058Z,76.59
2019-01-06T03:49:02.928Z,76.70
2019-01-06T03:52:07.114Z,76.96
2019-01-06T03:54:54.814Z,77.11
2019-01-06T03:57:49.979Z,76.92
2019-01-06T04:00:37.699Z,76.91
2019-01-06T04:03:17.400Z,76.86
2019-01-06T04:06:14.123Z,76.86
2019-01-06T04:09:03.219Z,76.75
2019-01-06T04:11:50.090Z,76.75
2019-01-06T04:14:38.481Z,76.77
2019-01-06T04:17:30.810Z,76.75
2019-01-06T04:20:19.213Z,76.66
2019-01-06T04:23:06.980Z,76.68
2019-01-06T04:25:59.172Z,76.66
2019-01-06T04:28:57.314Z,76.64
2019-01-06T04:31:55.530Z,76.62
2019-01-06T04:34:47.440Z,76.65
2019-01-06T04:37:39.770Z,76.61
2019-01-06T04:40:44.069Z,76.68
2019-01-06T04:43:32.274Z,76.68
2019-01-06T04:46:24.309Z,76.70
2019-01-06T04:49:13.732Z,76.80
2019-01-06T04:52:05.730Z,76.82
2019-01-06T04:54:54.015Z,76.64
2019-01-06T04:57:41.893Z,76.64
2019-01-06T05:00:35.315Z,76.76
2019-01-06T05:03:24.378Z,76.96
2019-01-06T05:06:17.380Z,77.08
2019-01-06T05:09:06.447Z,77.04
2019-01-06T05:12:04.498Z,77.42
2019-01-06T05:14:52.144Z,77.11
2019-01-06T05:17:55.502Z,76.99
2019-01-06T05:20:53.715Z,77.03
2019-01-06T05:24:01.228Z,76.99
2019-01-06T05:26:51.139Z,77.23
2019-01-06T05:29:49.644Z,77.25
2019-01-06T05:32:52.474Z,77.10
2019-01-06T05:35:40.123Z,76.91
2019-01-06T05:38:31.942Z,76.97
2019-01-06T05:41:39.557Z,76.65
2019-01-06T05:44:28.527Z,76.45
2019-01-06T05:47:16.682Z,76.30
2019-01-06T05:50:18.094Z,76.37
2019-01-06T05:53:26.022Z,76.54
2019-01-06T05:56:13.894Z,76.52
2019-01-06T05:59:10.297Z,76.58
2019-01-06T06:02:00.370Z,76.57
2019-01-06T06:04:48.208Z,76.63
2019-01-06T06:07:31.828Z,76.65
2019-01-06T06:10:23.761Z,76.61
2019-01-06T06:13:05.546Z,76.63
2019-01-06T06:15:53.556Z,76.52
2019-01-06T06:18:41.453Z,76.68
2019-01-06T06:21:26.229Z,76.70
2019-01-06T06:24:15.771Z,76.71
2019-01-06T06:27:03.662Z,76.79
2019-01-06T06:29:51.617Z,76.95
2019-01-06T06:32:38.746Z,76.80
2019-01-06T06:35:30.763Z,76.75
2019-01-06T06:38:33.944Z,76.67
2019-01-06T06:41:29.167Z,76.73
2019-01-06T06:44:24.381Z,76.67
2019-01-06T06:47:08.748Z,76.61
2019-01-06T06:50:13.302Z,76.60
2019-01-06T06:52:53.734Z,76.66
2019-01-06T06:55:52.434Z,76.68
2019-01-06T06:58:40.190Z,76.81
2019-01-06T07:01:51.492Z,76.84
2019-01-06T07:04:49.694Z,76.87
2019-01-06T07:07:36.827Z,76.81
2019-01-06T07:10:31.735Z,76.93
2019-01-06T07:13:24.660Z,76.85
2019-01-06T07:16:12.122Z,76.75
2019-01-06T07:19:00.523Z,76.81
2019-01-06T07:21:52.480Z,77.02
2019-01-06T07:24:44.449Z,77.31
2019-01-06T07:27:40.491Z,77.53
2019-01-06T07:30:28.752Z,77.65
2019-01-06T07:33:06.960Z,77.46
2019-01-06T07:35:55.404Z,77.15
2019-01-06T07:38:44.482Z,77.35
2019-01-06T07:41:36.433Z,77.17
2019-01-06T07:44:24.530Z,77.19
2019-01-06T07:47:12.680Z,77.08
2019-01-06T07:50:13.817Z,76.95
2019-01-06T07:53:09.761Z,76.86
2019-01-06T07:56:11.747Z,76.77
2019-01-06T07:59:00.365Z,76.57
2019-01-06T08:01:41.601Z,76.51
2019-01-06T08:04:30.106Z,76.61
2019-01-06T08:07:19.175Z,76.56
2019-01-06T08:10:20.405Z,76.59
2019-01-06T08:13:18.435Z,76.57
2019-01-06T08:16:06.638Z,76.68
2019-01-06T08:18:59.132Z,76.60
2019-01-06T08:21:54.866Z,76.66
2019-01-06T08:24:38.792Z,76.57
2019-01-06T08:27:27.899Z,76.65
2019-01-06T08:30:16.095Z,76.58
2019-01-06T08:33:07.993Z,76.53
2019-01-06T08:36:01.170Z,76.47
2019-01-06T08:39:08.828Z,76.40
2019-01-06T08:42:04.217Z,76.29
2019-01-06T08:44:52.394Z,76.42
2019-01-06T08:47:41.450Z,76.46
2019-01-06T08:50:28.643Z,76.45
2019-01-06T08:53:16.382Z,76.46
2019-01-06T08:56:17.462Z,76.60
2019-01-06T08:59:21.800Z,76.51
2019-01-06T09:02:29.001Z,76.40
2019-01-06T09:05:16.696Z,76.34
2019-01-06T09:08:11.361Z,76.60
2019-01-06T09:10:59.106Z,76.64
2019-01-06T09:13:51.431Z,76.44
2019-01-06T09:16:39.437Z,76.38
2019-01-06T09:19:19.724Z,76.43
2019-01-06T09:22:03.429Z,76.45
2019-01-06T09:24:55.326Z,76.46
2019-01-06T09:27:56.715Z,76.46
2019-01-06T09:30:51.668Z,76.74
2019-01-06T09:33:39.695Z,76.61
2019-01-06T09:36:31.036Z,76.68
2019-01-06T09:39:19.481Z,76.72
2019-01-06T09:42:16.202Z,76.99
2019-01-06T09:45:11.337Z,76.74
2019-01-06T09:47:50.732Z,76.79
2019-01-06T09:50:43.111Z,76.83
2019-01-06T09:53:47.715Z,76.75
2019-01-06T09:56:51.907Z,76.69
2019-01-06T09:59:39.457Z,76.47
2019-01-06T10:02:38.138Z,76.51
2019-01-06T10:05:27.239Z,76.45
2019-01-06T10:08:14.982Z,76.44
2019-01-06T10:11:11.783Z,76.42
2019-01-06T10:13:59.489Z,76.22
2019-01-06T10:16:47.531Z,76.35
2019-01-06T10:19:35.362Z,76.29
2019-01-06T10:22:26.308Z,76.55
2019-01-06T10:25:21.501Z,76.56
2019-01-06T10:28:04.739Z,76.69
2019-01-06T10:30:52.549Z,76.71
2019-01-06T10:33:40.490Z,76.57
2019-01-06T10:36:28.611Z,76.62
2019-01-06T10:39:17.980Z,76.75
2019-01-06T10:42:08.266Z,76.60
2019-01-06T10:45:03.582Z,76.43
2019-01-06T10:47:51.573Z,76.37
2019-01-06T10:50:43.561Z,76.48
2019-01-06T10:53:31.611Z,76.37
2019-01-06T10:56:23.853Z,76.53
2019-01-06T10:59:13.639Z,77.09
2019-01-06T11:02:08.975Z,76.94
2019-01-06T11:05:01.157Z,77.37
2019-01-06T11:07:42.906Z,77.50
2019-01-06T11:10:39.999Z,77.11
2019-01-06T11:13:29.097Z,77.06
2019-01-06T11:16:13.422Z,77.11
2019-01-06T11:19:01.649Z,77.58
2019-01-06T11:21:57.487Z,77.99
2019-01-06T11:24:45.606Z,77.60
2019-01-06T11:27:45.941Z,77.13
2019-01-06T11:30:33.783Z,76.94
2019-01-06T11:33:41.409Z,76.81
2019-01-06T11:36:39.995Z,76.66
2019-01-06T11:39:27.897Z,76.64
2019-01-06T11:42:22.871Z,76.56
2019-01-06T11:45:19.137Z,76.48
2019-01-06T11:48:14.834Z,76.39
2019-01-06T11:51:09.962Z,76.39
2019-01-06T11:54:02.402Z,76.26
2019-01-06T11:56:45.325Z,76.23
2019-01-06T11:59:33.393Z,76.22
2019-01-06T12:02:25.520Z,76.23
2019-01-06T12:05:15.007Z,76.28
2019-01-06T12:08:00.231Z,76.18
2019-01-06T12:11:01.638Z,76.09
2019-01-06T12:13:52.919Z,76.24
2019-01-06T12:16:51.551Z,76.18
2019-01-06T12:19:23.671Z,75.93
2019-01-06T12:22:11.810Z,76.10
2019-01-06T12:25:04.660Z,75.91
2019-01-06T12:27:54.465Z,75.98
2019-01-06T12:30:46.558Z,75.95
2019-01-06T12:33:41.473Z,75.81
2019-01-06T12:36:33.329Z,75.80
2019-01-06T12:42:16.217Z,75.53
2019-01-06T12:45:03.451Z,75.67
2019-01-06T12:47:51.090Z,75.41
2019-01-06T12:50:38.468Z,75.22
2019-01-06T12:53:20.104Z,74.89
2019-01-06T12:56:09.311Z,74.86
2019-01-06T12:58:57.396Z,75.04
2019-01-06T13:01:52.641Z,75.00
2019-01-06T13:04:47.641Z,74.73
2019-01-06T13:07:42.595Z,74.81
2019-01-06T13:10:47.112Z,74.66
2019-01-06T13:13:37.069Z,75.18
2019-01-06T13:16:25.077Z,75.06
2019-01-06T13:19:17.380Z,74.82
2019-01-06T13:22:05.149Z,74.84
2019-01-06T13:24:54.244Z,74.79
2019-01-06T13:27:49.488Z,74.76
2019-01-06T13:30:41.606Z,74.80
2019-01-06T13:33:26.112Z,74.86
2019-01-06T13:36:15.717Z,74.79
2019-01-06T13:39:08.204Z,74.78
2019-01-06T13:41:57.302Z,74.80
2019-01-06T13:44:45.666Z,74.93
2019-01-06T13:47:33.826Z,74.94
2019-01-06T13:50:26.270Z,75.23
2019-01-06T13:53:27.441Z,75.25
2019-01-06T13:56:16.537Z,75.21
2019-01-06T13:59:14.949Z,75.03
2019-01-06T14:02:02.820Z,74.91
2019-01-06T14:04:57.395Z,74.90
2019-01-06T14:07:58.601Z,74.94
2019-01-06T14:10:46.460Z,74.86
2019-01-06T14:13:41.937Z,74.83
2019-01-06T14:16:29.775Z,74.81
2019-01-06T14:19:34.344Z,74.81
2019-01-06T14:22:38.873Z,74.86
2019-01-06T14:25:30.933Z,74.92
2019-01-06T14:28:20.020Z,74.94
2019-01-06T14:31:14.987Z,74.93
2019-01-06T14:34:04.079Z,74.81
2019-01-06T14:36:52.004Z,74.84
2019-01-06T14:39:36.202Z,74.79
2019-01-06T14:42:26.407Z,74.87
2019-01-06T14:45:23.161Z,74.87
2019-01-06T14:48:10.887Z,74.79
2019-01-06T14:50:59.103Z,74.79
2019-01-06T14:54:06.351Z,74.93
2019-01-06T14:57:04.912Z,74.86
2019-01-06T14:59:52.569Z,74.93
2019-01-06T15:02:50.223Z,75.18
2019-01-06T15:05:40.960Z,75.05
2019-01-06T15:08:29.735Z,75.20
2019-01-06T15:11:18.800Z,75.08
2019-01-06T15:14:11.253Z,75.22
2019-01-06T15:16:59.513Z,75.11
2019-01-06T15:19:47.598Z,75.11
2019-01-06T15:22:33.086Z,75.35
2019-01-06T15:25:20.714Z,75.30
2019-01-06T15:28:24.891Z,75.15
2019-01-06T15:31:29.308Z,75.13
2019-01-06T15:34:32.458Z,75.12
2019-01-06T15:37:32.189Z,75.29
2019-01-06T15:40:39.786Z,75.25
2019-01-06T15:43:46.368Z,75.24
2019-01-06T15:46:41.864Z,75.25
2019-01-06T15:49:30.063Z,75.33
2019-01-06T15:52:19.481Z,75.58
2019-01-06T15:55:07.470Z,75.44
2019-01-06T15:58:14.854Z,75.33
2019-01-06T16:01:16.145Z,75.34
2019-01-06T16:04:11.059Z,75.37
2019-01-06T16:07:00.279Z,75.32
2019-01-06T16:09:43.765Z,75.27
2019-01-06T16:12:39.208Z,75.24
2019-01-06T16:15:34.379Z,75.26
2019-01-06T16:18:42.351Z,75.39
2019-01-06T16:21:38.203Z,75.40
2019-01-06T16:24:34.555Z,75.61
2019-01-06T16:27:22.166Z,75.46
2019-01-06T16:30:20.213Z,75.37
2019-01-06T16:33:08.297Z,75.39
2019-01-06T16:35:57.381Z,75.35
2019-01-06T16:39:04.904Z,75.37
2019-01-06T16:41:56.335Z,75.52
2019-01-06T16:44:54.275Z,75.51
2019-01-06T16:47:42.313Z,75.56
2019-01-06T16:50:32.754Z,75.48
2019-01-06T16:53:20.757Z,75.44
2019-01-06T16:56:15.894Z,75.41
2019-01-06T16:59:17.893Z,75.44
2019-01-06T17:02:05.954Z,75.34
2019-01-06T17:04:53.605Z,75.39
2019-01-06T17:07:59.501Z,75.30
2019-01-06T17:10:47.747Z,75.29
2019-01-06T17:13:37.979Z,75.35
2019-01-06T17:16:45.693Z,75.37
2019-01-06T17:19:37.829Z,75.40
2019-01-06T17:22:25.809Z,75.39
2019-01-06T17:25:17.132Z,75.42
2019-01-06T17:28:15.335Z,75.39
2019-01-06T17:31:04.409Z,75.35
2019-01-06T17:33:59.436Z,75.43
2019-01-06T17:36:48.525Z,75.34
2019-01-06T17:39:36.617Z,75.34
2019-01-06T17:42:22.254Z,75.37
2019-01-06T17:45:26.743Z,75.27
2019-01-06T17:48:18.643Z,75.27
2019-01-06T17:51:11.203Z,75.16
2019-01-06T17:53:57.041Z,75.16
2019-01-06T17:56:54.702Z,75.16
2019-01-06T17:59:49.587Z,75.19
2019-01-06T18:02:37.268Z,75.30
2019-01-06T18:05:26.617Z,75.25
2019-01-06T18:08:14.655Z,75.40
2019-01-06T18:11:05.868Z,75.42
2019-01-06T18:14:04.690Z,75.36
2019-01-06T18:16:53.784Z,75.24
2019-01-06T18:19:54.870Z,75.28
2019-01-06T18:22:42.863Z,75.24
2019-01-06T18:25:40.220Z,75.46
2019-01-06T18:28:42.946Z,75.51
2019-01-06T18:31:30.855Z,75.60
2019-01-06T18:34:18.778Z,75.44
2019-01-06T18:37:07.361Z,75.28
2019-01-06T18:39:55.090Z,75.14
2019-01-06T18:43:02.950Z,75.08
2019-01-06T18:46:04.532Z,75.37
2019-01-06T18:48:52.623Z,75.18
2019-01-06T18:51:44.541Z,75.39
2019-01-06T18:54:48.225Z,75.51
2019-01-06T18:57:37.379Z,75.55
2019-01-06T19:00:45.211Z,75.52
2019-01-06T19:03:32.825Z,75.25
2019-01-06T19:06:22.030Z,74.78
2019-01-06T19:09:26.485Z,74.58
2019-01-06T19:12:18.439Z,74.54
2019-01-06T19:15:12.120Z,74.60
2019-01-06T19:18:10.681Z,74.69
2019-01-06T19:20:57.929Z,74.74
2019-01-06T19:24:00.239Z,74.77
2019-01-06T19:26:52.394Z,74.80
2019-01-06T19:29:40.913Z,74.79
2019-01-06T19:32:36.153Z,74.89
2019-01-06T19:35:34.698Z,74.93
2019-01-06T19:38:35.490Z,74.95
2019-01-06T19:41:23.522Z,75.01
2019-01-06T19:44:14.394Z,75.01
2019-01-06T19:47:18.666Z,74.95
2019-01-06T19:50:08.131Z,75.00
2019-01-06T19:53:00.934Z,74.96
2019-01-06T19:55:48.620Z,75.03
2019-01-06T19:58:44.179Z,75.03
2019-01-06T20:01:42.806Z,75.03
2019-01-06T20:04:34.972Z,75.01
2019-01-06T20:07:22.804Z,75.09
2019-01-06T20:10:10.907Z,75.19
2019-01-06T20:12:58.706Z,75.16
2019-01-06T20:16:06.055Z,75.15
2019-01-06T20:19:02.558Z,75.19
2019-01-06T20:21:50.813Z,75.13
2019-01-06T20:24:38.606Z,75.12
2019-01-06T20:27:30.787Z,75.10
2019-01-06T20:30:18.658Z,75.14
2019-01-06T20:33:06.726Z,75.22
2019-01-06T20:36:01.894Z,75.15
2019-01-06T20:38:50.021Z,75.19
2019-01-06T20:41:58.579Z,75.23
2019-01-06T20:44:40.453Z,75.18
2019-01-06T20:47:28.193Z,75.20
2019-01-06T20:50:16.253Z,75.18
2019-01-06T20:53:11.966Z,75.14
2019-01-06T20:56:03.976Z,75.12
2019-01-06T20:58:58.908Z,75.19
2019-01-06T21:01:48.013Z,75.16
2019-01-06T21:04:43.207Z,75.25
2019-01-06T21:07:44.980Z,75.42
2019-01-06T21:10:34.920Z,75.33
2019-01-06T21:13:24.082Z,75.17
2019-01-06T21:16:12.003Z,75.44
2019-01-06T21:19:00.634Z,75.58
2019-01-06T21:21:48.719Z,75.28
2019-01-06T21:24:40.059Z,75.44
2019-01-06T21:27:29.133Z,75.51
2019-01-06T21:30:21.540Z,75.39
2019-01-06T21:33:13.672Z,75.17
2019-01-06T21:36:18.351Z,75.15
2019-01-06T21:39:04.597Z,74.93
2019-01-06T21:41:52.726Z,74.55
2019-01-06T21:44:50.626Z,74.50
2019-01-06T21:47:38.329Z,74.20
2019-01-06T21:50:26.114Z,74.05
2019-01-06T21:53:14.203Z,73.98
2019-01-06T21:56:18.704Z,74.05
2019-01-06T21:59:10.244Z,74.12
2019-01-06T22:01:57.846Z,74.22
2019-01-06T22:04:47.278Z,74.33
2019-01-06T22:07:39.170Z,74.44
2019-01-06T22:10:40.351Z,74.47
2019-01-06T22:13:29.620Z,74.46
2019-01-06T22:16:18.077Z,74.65
2019-01-06T22:19:19.262Z,74.68
2019-01-06T22:22:07.349Z,74.75
2019-01-06T22:24:55.748Z,74.68
2019-01-06T22:27:51.051Z,74.80
2019-01-06T22:30:49.441Z,74.78
2019-01-06T22:33:32.017Z,74.72
2019-01-06T22:39:37.102Z,74.71
2019-01-06T22:42:24.888Z,74.77
2019-01-06T22:45:17.215Z,74.78
2019-01-06T22:48:18.619Z,74.85
2019-01-06T22:51:06.414Z,74.88
2019-01-06T22:53:55.680Z,74.88
2019-01-06T22:57:00.229Z,74.91
2019-01-06T23:00:07.569Z,74.90
2019-01-06T23:03:03.097Z,74.92
2019-01-06T23:05:48.937Z,74.94
2019-01-06T23:08:44.026Z,74.98
2019-01-06T23:11:42.366Z,75.01
2019-01-06T23:14:30.064Z,75.11
2019-01-06T23:17:34.436Z,75.28
2019-01-06T23:20:22.265Z,75.37
2019-01-06T23:23:12.226Z,75.37
2019-01-06T23:26:02.139Z,75.35
2019-01-06T23:29:09.440Z,75.97
2019-01-06T23:31:54.640Z,75.44
2019-01-06T23:34:47.161Z,75.18
2019-01-06T23:37:33.915Z,74.89
2019-01-06T23:40:26.144Z,74.77
2019-01-06T23:43:21.943Z,74.66
2019-01-06T23:46:14.325Z,74.69
2019-01-06T23:49:03.779Z,74.98
2019-01-06T23:51:51.542Z,74.80
2019-01-06T23:54:56.138Z,74.60
2019-01-06T23:57:45.223Z,74.42
